Terminal Aerodrome Forecast
Issued by NWS

Home | Current Version | Previous Version | Text Only | Print | Product List | Glossary On
Versions: 1 2 3 4 5 6 7 8 9 10 11 12 13 14 15 16 17 18
000
FTUS41 KLWX 162323
TAFMTN
TAF
KMTN 162323Z 1700/1724 23004KT P6SM FEW250
     FM170500 VRB03KT P6SM SCT150
     FM171700 13005KT P6SM BKN110
      AMD NOT SKED 1702/1712=

USA.gov is the U.S. government's official web portal to all federal, state and local government web resources and services.